createdAt,value
2019-02-14T00:00:41.791Z,11.83
2019-02-14T00:03:09.247Z,12.00
2019-02-14T00:05:36.758Z,11.27
2019-02-14T00:08:04.223Z,11.80
2019-02-14T00:10:31.725Z,12.37
2019-02-14T00:12:59.205Z,11.77
2019-02-14T00:15:26.675Z,12.50
2019-02-14T00:17:54.163Z,13.17
2019-02-14T00:20:21.937Z,12.00
2019-02-14T00:22:49.433Z,11.50
2019-02-14T00:25:16.929Z,12.03
2019-02-14T00:27:44.435Z,12.40
2019-02-14T00:30:11.903Z,11.17
2019-02-14T00:32:39.447Z,12.03
2019-02-14T00:35:06.887Z,12.17
2019-02-14T00:37:34.377Z,11.87
2019-02-14T00:40:01.877Z,12.17
2019-02-14T00:42:29.372Z,11.53
2019-02-14T00:44:56.868Z,11.93
2019-02-14T00:47:24.324Z,11.67
2019-02-14T00:49:51.833Z,12.33
2019-02-14T00:52:19.334Z,12.20
2019-02-14T00:54:46.791Z,11.43
2019-02-14T00:57:14.304Z,13.37
2019-02-14T00:59:41.780Z,12.17
2019-02-14T01:02:09.278Z,11.50
2019-02-14T01:04:36.732Z,11.23
2019-02-14T01:07:04.251Z,10.33
2019-02-14T01:09:31.728Z,11.80
2019-02-14T01:11:59.191Z,12.73
2019-02-14T01:14:26.688Z,12.33
2019-02-14T01:16:54.162Z,12.13
2019-02-14T01:19:21.659Z,11.60
2019-02-14T01:21:49.119Z,11.67
2019-02-14T01:24:16.581Z,11.83
2019-02-14T01:26:44.050Z,12.03
2019-02-14T01:29:11.560Z,10.63
2019-02-14T01:31:39.052Z,10.67
2019-02-14T01:34:06.556Z,10.77
2019-02-14T01:36:34.025Z,10.83
2019-02-14T01:39:01.507Z,10.47
2019-02-14T01:41:29.124Z,10.63
2019-02-14T01:43:56.762Z,11.43
2019-02-14T01:46:24.239Z,10.53
2019-02-14T01:48:51.748Z,11.17
2019-02-14T01:51:19.541Z,10.73
2019-02-14T01:53:47.047Z,10.97
2019-02-14T01:56:15.263Z,10.93
2019-02-14T01:58:42.853Z,11.87
2019-02-14T02:01:10.672Z,11.37
2019-02-14T02:03:38.136Z,11.80
2019-02-14T02:06:05.570Z,11.57
2019-02-14T02:08:33.030Z,10.27
2019-02-14T02:11:00.555Z,12.07
2019-02-14T02:13:28.005Z,11.67
2019-02-14T02:15:56.521Z,12.77
2019-02-14T02:18:24.050Z,12.50
2019-02-14T02:20:51.522Z,11.60
2019-02-14T02:23:19.014Z,12.43
2019-02-14T02:25:46.451Z,10.67
2019-02-14T02:28:14.215Z,11.63
2019-02-14T02:30:41.888Z,10.30
2019-02-14T02:33:09.335Z,10.53
2019-02-14T02:35:36.823Z,10.47
2019-02-14T02:38:04.250Z,10.00
2019-02-14T02:40:31.699Z,10.50
2019-02-14T02:42:59.136Z,12.37
2019-02-14T02:45:26.596Z,11.13
2019-02-14T02:47:54.027Z,10.70
2019-02-14T02:50:21.502Z,10.57
2019-02-14T02:52:48.962Z,10.17
2019-02-14T02:55:16.426Z,12.23
2019-02-14T02:57:43.893Z,11.93
2019-02-14T03:00:13.875Z,12.17
2019-02-14T03:02:41.292Z,12.00
2019-02-14T03:05:10.215Z,11.73
2019-02-14T03:07:37.656Z,12.50
2019-02-14T03:10:06.224Z,12.23
2019-02-14T03:12:33.640Z,11.97
2019-02-14T03:15:01.518Z,11.97
2019-02-14T03:17:29.233Z,11.67
2019-02-14T03:19:57.681Z,12.60
2019-02-14T03:22:25.896Z,11.80
2019-02-14T03:24:54.550Z,12.53
2019-02-14T03:27:22.397Z,11.63
2019-02-14T03:29:50.530Z,10.53
2019-02-14T03:32:18.235Z,11.50
2019-02-14T03:34:45.729Z,11.50
2019-02-14T03:37:14.748Z,12.80
2019-02-14T03:40:01.790Z,11.97
2019-02-14T03:42:29.957Z,10.70
2019-02-14T03:44:57.386Z,11.80
2019-02-14T03:47:24.875Z,11.57
2019-02-14T03:49:52.310Z,11.57
2019-02-14T03:52:19.766Z,11.13
2019-02-14T03:54:47.190Z,11.20
2019-02-14T03:57:14.642Z,11.87
2019-02-14T03:59:42.132Z,10.83
2019-02-14T04:02:09.631Z,12.07
2019-02-14T04:04:37.107Z,11.67
2019-02-14T04:07:04.712Z,11.53
2019-02-14T04:09:32.199Z,11.50
2019-02-14T04:11:59.683Z,11.30
2019-02-14T04:14:27.150Z,11.43
2019-02-14T04:16:54.665Z,10.90
2019-02-14T04:19:22.375Z,11.80
2019-02-14T04:21:50.109Z,11.53
2019-02-14T04:24:17.590Z,11.23
2019-02-14T04:26:45.047Z,10.93
2019-02-14T04:29:12.536Z,11.27
2019-02-14T04:31:42.223Z,12.17
2019-02-14T04:34:10.128Z,11.87
2019-02-14T04:36:38.017Z,11.50
2019-02-14T04:39:07.213Z,10.90
2019-02-14T04:41:36.002Z,11.67
2019-02-14T04:44:03.538Z,11.63
2019-02-14T04:46:33.341Z,11.23
2019-02-14T04:49:01.265Z,11.10
2019-02-14T04:51:29.265Z,12.10
2019-02-14T04:53:57.203Z,11.70
2019-02-14T04:56:24.965Z,11.90
2019-02-14T04:58:52.460Z,12.23
2019-02-14T05:01:19.935Z,11.13
2019-02-14T05:03:47.464Z,11.47
2019-02-14T05:06:14.968Z,11.03
2019-02-14T05:08:42.939Z,10.60
2019-02-14T05:11:10.388Z,11.83
2019-02-14T05:13:37.889Z,11.47
2019-02-14T05:16:05.392Z,10.97
2019-02-14T05:18:32.904Z,11.10
2019-02-14T05:21:01.036Z,11.93
2019-02-14T05:23:28.537Z,12.47
2019-02-14T05:25:56.040Z,11.77
2019-02-14T05:28:23.549Z,12.07
2019-02-14T05:30:51.418Z,12.93
2019-02-14T05:33:18.905Z,11.90
2019-02-14T05:35:46.372Z,12.10
2019-02-14T05:38:13.877Z,11.50
2019-02-14T05:40:42.648Z,12.83
2019-02-14T05:43:10.129Z,12.70
2019-02-14T05:45:37.616Z,12.57
2019-02-14T05:50:53.917Z,12.93
2019-02-14T05:53:21.401Z,12.67
2019-02-14T05:55:49.022Z,13.40
2019-02-14T05:58:16.614Z,12.40
2019-02-14T06:00:44.274Z,12.47
2019-02-14T06:03:12.858Z,12.80
2019-02-14T06:05:40.798Z,12.43
2019-02-14T06:08:08.541Z,12.87
2019-02-14T06:10:36.411Z,13.83
2019-02-14T06:13:03.912Z,14.57
2019-02-14T06:15:32.008Z,14.70
2019-02-14T06:17:59.973Z,14.03
2019-02-14T06:20:27.878Z,14.70
2019-02-14T06:22:55.412Z,14.00
2019-02-14T06:25:23.443Z,13.97
2019-02-14T06:27:51.829Z,15.00
2019-02-14T06:30:19.956Z,15.93
2019-02-14T06:32:47.459Z,16.20
2019-02-14T06:35:14.928Z,14.93
2019-02-14T06:37:42.420Z,15.83
2019-02-14T06:40:10.389Z,16.40
2019-02-14T06:42:37.901Z,14.33
2019-02-14T06:45:06.970Z,15.80
2019-02-14T06:47:34.472Z,14.97
2019-02-14T06:50:01.942Z,14.57
2019-02-14T06:52:29.706Z,15.67
2019-02-14T06:54:57.184Z,13.90
2019-02-14T06:57:24.720Z,14.20
2019-02-14T06:59:52.176Z,13.43
2019-02-14T07:02:19.684Z,14.27
2019-02-14T07:04:47.168Z,13.80
2019-02-14T07:07:18.627Z,14.30
2019-02-14T07:09:43.940Z,15.07
2019-02-14T07:12:11.741Z,13.87
2019-02-14T07:14:39.247Z,13.50
2019-02-14T07:17:06.751Z,13.93
2019-02-14T07:19:34.215Z,14.23
2019-02-14T07:22:01.723Z,12.07
2019-02-14T07:24:29.196Z,13.00
2019-02-14T07:26:56.975Z,12.83
2019-02-14T07:29:24.502Z,13.70
2019-02-14T07:31:51.994Z,14.20
2019-02-14T07:34:19.493Z,14.43
2019-02-14T07:36:47.043Z,13.10
2019-02-14T07:39:15.037Z,13.67
2019-02-14T07:41:42.511Z,13.67
2019-02-14T07:44:10.047Z,13.00
2019-02-14T07:46:37.548Z,13.33
2019-02-14T07:49:05.049Z,13.70
2019-02-14T07:51:32.549Z,13.80
2019-02-14T07:54:00.069Z,13.20
2019-02-14T07:56:27.540Z,13.37
2019-02-14T07:58:55.029Z,11.57
2019-02-14T08:01:22.495Z,12.67
2019-02-14T08:03:50.013Z,14.03
2019-02-14T08:06:17.508Z,13.60
2019-02-14T08:08:45.008Z,12.93
2019-02-14T08:11:13.351Z,13.43
2019-02-14T08:13:40.878Z,13.13
2019-02-14T08:16:08.332Z,12.77
2019-02-14T08:18:35.835Z,13.30
2019-02-14T08:21:03.298Z,13.57
2019-02-14T08:23:30.781Z,13.07
2019-02-14T08:25:58.299Z,12.73
2019-02-14T08:28:25.799Z,13.37
2019-02-14T08:30:53.405Z,11.90
2019-02-14T08:33:21.138Z,13.00
2019-02-14T08:35:50.092Z,12.27
2019-02-14T08:38:18.432Z,12.27
2019-02-14T08:40:45.953Z,12.43
2019-02-14T08:43:13.409Z,13.57
2019-02-14T08:45:40.935Z,13.57
2019-02-14T08:48:08.424Z,13.53
2019-02-14T08:50:35.911Z,13.10
2019-02-14T08:53:03.387Z,14.37
2019-02-14T08:55:30.880Z,14.23
2019-02-14T08:57:58.357Z,14.10
2019-02-14T09:00:25.884Z,14.27
2019-02-14T09:02:53.389Z,13.30
2019-02-14T09:05:20.918Z,13.63
2019-02-14T09:07:54.138Z,14.20
2019-02-14T09:10:17.960Z,12.20
2019-02-14T09:12:45.425Z,13.53
2019-02-14T09:15:12.946Z,14.20
2019-02-14T09:17:40.413Z,12.87
2019-02-14T09:20:09.621Z,13.40
2019-02-14T09:22:37.089Z,13.47
2019-02-14T09:25:05.080Z,14.13
2019-02-14T09:27:32.559Z,13.60
2019-02-14T09:30:00.336Z,13.77
2019-02-14T09:32:27.813Z,13.00
2019-02-14T09:34:55.262Z,14.03
2019-02-14T09:37:22.739Z,13.77
2019-02-14T09:39:50.200Z,14.10
2019-02-14T09:42:17.679Z,13.80
2019-02-14T09:44:45.143Z,14.07
2019-02-14T09:47:12.637Z,14.90
2019-02-14T09:49:40.121Z,13.97
2019-02-14T09:52:07.623Z,13.93
2019-02-14T09:54:35.082Z,13.60
2019-02-14T09:57:02.601Z,13.63
2019-02-14T09:59:30.065Z,13.50
2019-02-14T10:01:57.576Z,15.37
2019-02-14T10:04:25.054Z,15.40
2019-02-14T10:06:52.531Z,14.40
2019-02-14T10:09:20.180Z,15.33
2019-02-14T10:11:47.678Z,13.97
2019-02-14T10:14:15.144Z,13.67
2019-02-14T10:16:42.630Z,14.37
2019-02-14T10:19:10.110Z,13.50
2019-02-14T10:21:37.616Z,13.80
2019-02-14T10:24:05.123Z,14.67
2019-02-14T10:26:32.895Z,13.93
2019-02-14T10:29:00.368Z,13.27
2019-02-14T10:31:27.897Z,14.73
2019-02-14T10:33:55.362Z,13.63
2019-02-14T10:36:23.709Z,14.50
2019-02-14T10:38:51.194Z,14.27
2019-02-14T10:41:18.633Z,14.07
2019-02-14T10:43:48.905Z,14.40
2019-02-14T10:46:15.416Z,13.97
2019-02-14T10:48:42.904Z,15.23
2019-02-14T10:51:10.388Z,14.53
2019-02-14T10:53:37.883Z,15.63
2019-02-14T10:56:05.359Z,14.33
2019-02-14T10:58:32.893Z,14.43
2019-02-14T11:01:00.359Z,14.70
2019-02-14T11:03:27.897Z,16.07
2019-02-14T11:05:55.401Z,14.07
2019-02-14T11:08:31.424Z,14.67
2019-02-14T11:10:52.878Z,14.07
2019-02-14T11:13:20.360Z,14.27
2019-02-14T11:15:47.836Z,15.10
2019-02-14T11:18:15.349Z,14.37
2019-02-14T11:20:42.824Z,14.10
2019-02-14T11:23:10.295Z,15.00
2019-02-14T11:25:37.824Z,15.13
2019-02-14T11:28:05.338Z,15.63
2019-02-14T11:30:32.950Z,15.57
2019-02-14T11:33:00.473Z,14.53
2019-02-14T11:35:28.372Z,15.07
2019-02-14T11:37:55.840Z,13.50
2019-02-14T11:40:23.340Z,15.60
2019-02-14T11:42:50.801Z,15.57
2019-02-14T11:45:18.647Z,15.87
2019-02-14T11:47:46.113Z,13.80
2019-02-14T11:50:13.590Z,16.33
2019-02-14T11:52:41.053Z,15.07
2019-02-14T11:55:08.555Z,14.87
2019-02-14T11:57:36.006Z,14.53
2019-02-14T12:00:05.275Z,14.28
2019-02-14T12:02:32.727Z,15.25
2019-02-14T12:05:00.210Z,14.25
2019-02-14T12:07:27.738Z,13.93
2019-02-14T12:09:56.117Z,14.95
2019-02-14T12:12:25.400Z,14.95
2019-02-14T12:14:52.900Z,14.03
2019-02-14T12:17:20.372Z,15.75
2019-02-14T12:19:48.983Z,15.35
2019-02-14T12:22:16.583Z,15.13
2019-02-14T12:24:44.107Z,14.83
2019-02-14T12:27:11.628Z,15.88
2019-02-14T12:29:39.161Z,15.88
2019-02-14T12:32:06.657Z,15.38
2019-02-14T12:34:34.353Z,15.93
2019-02-14T12:37:01.914Z,16.48
2019-02-14T12:39:29.421Z,15.78
2019-02-14T12:41:56.936Z,15.45
2019-02-14T12:44:24.802Z,15.23
2019-02-14T12:46:52.379Z,16.62
2019-02-14T12:49:19.873Z,15.28
2019-02-14T12:51:47.379Z,15.15
2019-02-14T12:54:14.887Z,15.15
2019-02-14T12:56:42.441Z,15.78
2019-02-14T12:59:10.356Z,15.15
2019-02-14T13:01:37.885Z,13.20
2019-02-14T13:04:05.542Z,14.68
2019-02-14T13:06:34.786Z,14.20
2019-02-14T13:09:02.937Z,15.43
2019-02-14T13:11:30.523Z,16.00
2019-02-14T13:13:58.859Z,14.85
2019-02-14T13:16:26.384Z,14.87
2019-02-14T13:19:05.736Z,15.13
2019-02-14T13:21:33.633Z,15.98
2019-02-14T13:24:01.196Z,16.20
2019-02-14T13:26:28.742Z,16.85
2019-02-14T13:28:56.563Z,18.45
2019-02-14T13:31:31.680Z,18.92
2019-02-14T13:33:53.552Z,18.35
2019-02-14T13:36:22.408Z,17.32
2019-02-14T13:38:49.956Z,18.60
2019-02-14T13:41:17.473Z,20.97
2019-02-14T13:43:44.970Z,19.55
2019-02-14T13:46:12.532Z,16.95
2019-02-14T13:48:40.150Z,14.53
2019-02-14T13:51:07.761Z,20.10
2019-02-14T13:53:35.612Z,17.62
2019-02-14T13:56:03.143Z,15.45
2019-02-14T13:58:30.750Z,16.52
2019-02-14T14:00:58.296Z,15.30
2019-02-14T14:03:26.590Z,14.45
2019-02-14T14:05:54.464Z,13.95
2019-02-14T14:08:22.442Z,14.45
2019-02-14T14:10:50.122Z,13.40
2019-02-14T14:13:18.497Z,14.05
2019-02-14T14:15:46.306Z,14.60
2019-02-14T14:18:16.901Z,14.20
2019-02-14T14:20:44.478Z,16.37
2019-02-14T14:23:12.102Z,16.10
2019-02-14T14:25:39.675Z,15.93
2019-02-14T14:28:07.212Z,15.93
2019-02-14T14:30:34.748Z,16.20
2019-02-14T14:33:02.685Z,16.10
2019-02-14T14:35:30.502Z,17.57
2019-02-14T14:37:58.025Z,17.05
2019-02-14T14:40:25.556Z,16.45
2019-02-14T14:43:04.359Z,15.70
2019-02-14T14:45:48.744Z,14.63
2019-02-14T14:48:19.447Z,13.08
2019-02-14T14:50:46.220Z,13.50
2019-02-14T14:53:13.800Z,13.85
2019-02-14T14:55:41.333Z,13.08
2019-02-14T14:58:09.198Z,12.35
2019-02-14T15:00:36.787Z,13.03
2019-02-14T15:03:04.309Z,13.95
2019-02-14T15:05:32.213Z,13.35
2019-02-14T15:07:59.728Z,13.38
2019-02-14T15:10:27.293Z,13.13
2019-02-14T15:12:54.874Z,13.90
2019-02-14T15:15:22.412Z,13.13
2019-02-14T15:17:50.695Z,14.38
2019-02-14T15:20:18.290Z,13.55
2019-02-14T15:22:45.823Z,13.70
2019-02-14T15:25:14.750Z,14.60
2019-02-14T15:27:42.233Z,14.60
2019-02-14T15:30:09.710Z,14.40
2019-02-14T15:32:37.219Z,14.78
2019-02-14T15:35:04.822Z,13.88
2019-02-14T15:37:32.341Z,14.65
2019-02-14T15:40:08.818Z,14.25
2019-02-14T15:42:29.273Z,14.25
2019-02-14T15:44:56.800Z,15.65
2019-02-14T15:47:24.257Z,20.05
2019-02-14T15:49:51.859Z,18.62
2019-02-14T15:52:19.388Z,18.07
2019-02-14T15:54:46.968Z,15.05
2019-02-14T15:57:16.507Z,18.17
2019-02-14T15:59:45.465Z,18.35
2019-02-14T16:02:14.677Z,18.27
2019-02-14T16:04:42.133Z,17.50
2019-02-14T16:07:09.668Z,17.27
2019-02-14T16:09:38.882Z,18.37
2019-02-14T16:12:06.461Z,18.33
2019-02-14T16:14:33.941Z,19.63
2019-02-14T16:17:01.427Z,18.57
2019-02-14T16:19:28.909Z,16.60
2019-02-14T16:21:56.395Z,17.07
2019-02-14T16:24:24.245Z,17.23
2019-02-14T16:26:51.711Z,17.40
2019-02-14T16:29:19.213Z,17.73
2019-02-14T16:31:46.688Z,16.90
2019-02-14T16:34:14.161Z,17.63
2019-02-14T16:36:42.083Z,16.67
2019-02-14T16:39:09.903Z,16.43
2019-02-14T16:41:37.460Z,17.07
2019-02-14T16:44:04.916Z,17.00
2019-02-14T16:46:32.419Z,17.83
2019-02-14T16:48:59.884Z,17.17
2019-02-14T16:51:27.359Z,16.80
2019-02-14T16:53:54.847Z,15.80
2019-02-14T16:56:22.331Z,17.23
2019-02-14T16:58:49.789Z,17.10
2019-02-14T17:01:17.396Z,17.70
2019-02-14T17:03:44.930Z,16.53
2019-02-14T17:06:12.738Z,16.03
2019-02-14T17:08:40.276Z,14.53
2019-02-14T17:11:07.813Z,14.10
2019-02-14T17:13:35.293Z,15.10
2019-02-14T17:16:02.795Z,15.83
2019-02-14T17:18:30.567Z,15.50
2019-02-14T17:20:58.051Z,17.17
2019-02-14T17:23:25.579Z,16.37
2019-02-14T17:25:53.394Z,17.77
2019-02-14T17:28:20.898Z,17.37
2019-02-14T17:30:48.709Z,21.40
2019-02-14T17:33:16.160Z,22.07
2019-02-14T17:35:43.664Z,22.83
2019-02-14T17:38:11.156Z,22.00
2019-02-14T17:40:45.804Z,22.77
2019-02-14T17:43:08.244Z,21.43
2019-02-14T17:45:35.768Z,21.47
2019-02-14T17:48:03.364Z,21.47
2019-02-14T17:50:30.895Z,21.53
2019-02-14T17:52:58.653Z,21.30
2019-02-14T17:55:27.332Z,21.40
2019-02-14T17:57:55.681Z,22.87
2019-02-14T18:00:23.172Z,26.83
2019-02-14T18:02:50.715Z,23.53
2019-02-14T18:05:18.516Z,22.07
2019-02-14T18:07:46.899Z,21.17
2019-02-14T18:10:16.253Z,23.17
2019-02-14T18:12:43.729Z,22.10
2019-02-14T18:15:20.688Z,22.20
2019-02-14T18:17:48.056Z,23.73
2019-02-14T18:20:15.547Z,21.50
2019-02-14T18:22:43.021Z,22.53
2019-02-14T18:25:10.544Z,22.17
2019-02-14T18:27:38.145Z,24.80
2019-02-14T18:30:06.464Z,26.93
2019-02-14T18:32:34.022Z,26.27
2019-02-14T18:35:01.520Z,28.20
2019-02-14T18:37:29.022Z,27.23
2019-02-14T18:39:56.693Z,28.00
2019-02-14T18:42:27.126Z,27.20
2019-02-14T18:44:54.622Z,29.27
2019-02-14T18:47:22.149Z,27.33
2019-02-14T18:49:50.049Z,24.53
2019-02-14T18:52:18.359Z,27.23
2019-02-14T18:54:46.058Z,27.13
2019-02-14T18:57:14.671Z,27.57
2019-02-14T18:59:42.210Z,26.73
2019-02-14T19:02:09.836Z,28.97
2019-02-14T19:04:37.416Z,28.90
2019-02-14T19:07:05.198Z,27.60
2019-02-14T19:09:32.731Z,28.10
2019-02-14T19:12:00.209Z,26.93
2019-02-14T19:14:28.067Z,27.57
2019-02-14T19:16:56.147Z,28.40
2019-02-14T19:19:23.639Z,25.30
2019-02-14T19:21:51.159Z,27.87
2019-02-14T19:24:18.861Z,26.80
2019-02-14T19:26:46.430Z,26.40
2019-02-14T19:29:13.959Z,25.90
2019-02-14T19:31:41.523Z,25.03
2019-02-14T19:34:09.036Z,25.00
2019-02-14T19:36:36.577Z,24.50
2019-02-14T19:39:04.831Z,25.47
2019-02-14T19:41:32.344Z,24.60
2019-02-14T19:43:59.857Z,27.13
2019-02-14T19:46:27.395Z,26.97
2019-02-14T19:48:55.280Z,26.17
2019-02-14T19:51:22.795Z,26.20
2019-02-14T19:53:50.273Z,25.30
2019-02-14T19:56:17.833Z,24.60
2019-02-14T19:58:45.322Z,27.70
2019-02-14T20:01:15.786Z,26.17
2019-02-14T20:03:43.394Z,25.27
2019-02-14T20:06:10.936Z,27.17
2019-02-14T20:08:41.577Z,27.33
2019-02-14T20:11:09.688Z,26.23
2019-02-14T20:13:37.563Z,25.27
2019-02-14T20:16:05.191Z,26.17
2019-02-14T20:18:35.003Z,25.00
2019-02-14T20:21:02.603Z,25.27
2019-02-14T20:23:30.205Z,26.63
2019-02-14T20:25:57.870Z,26.17
2019-02-14T20:28:26.424Z,27.13
2019-02-14T20:30:54.114Z,26.70
2019-02-14T20:33:21.866Z,26.47
2019-02-14T20:35:49.535Z,26.63
2019-02-14T20:38:18.655Z,27.23
2019-02-14T20:40:46.588Z,27.30
2019-02-14T20:43:14.112Z,27.60
2019-02-14T20:45:42.716Z,27.70
2019-02-14T20:48:10.786Z,28.33
2019-02-14T20:50:38.598Z,26.60
2019-02-14T20:53:06.143Z,25.93
2019-02-14T20:55:34.908Z,25.67
2019-02-14T20:58:04.755Z,26.10
2019-02-14T21:00:35.985Z,27.17
2019-02-14T21:03:03.896Z,28.27
2019-02-14T21:05:32.442Z,27.03
2019-02-14T21:08:00.157Z,27.60
2019-02-14T21:10:27.734Z,28.47
2019-02-14T21:12:55.291Z,28.83
2019-02-14T21:15:22.794Z,28.37
2019-02-14T21:17:50.344Z,28.27
2019-02-14T21:20:17.888Z,27.23
2019-02-14T21:23:04.852Z,28.77
2019-02-14T21:25:34.056Z,27.50
2019-02-14T21:28:04.062Z,26.80
2019-02-14T21:30:35.368Z,25.37
2019-02-14T21:33:03.664Z,27.37
2019-02-14T21:35:31.249Z,26.23
2019-02-14T21:40:36.746Z,28.73
2019-02-14T21:43:05.016Z,28.60
2019-02-14T21:45:32.518Z,27.40
2019-02-14T21:48:00.049Z,27.10
2019-02-14T21:50:27.575Z,26.47
2019-02-14T21:52:55.147Z,27.63
2019-02-14T21:55:22.763Z,26.40
2019-02-14T21:57:50.223Z,27.47
2019-02-14T22:00:18.565Z,29.00
2019-02-14T22:02:46.123Z,27.93
2019-02-14T22:05:13.769Z,27.73
2019-02-14T22:07:41.368Z,26.90
2019-02-14T22:10:09.263Z,28.07
2019-02-14T22:12:40.770Z,27.70
2019-02-14T22:15:08.483Z,27.73
2019-02-14T22:17:36.039Z,25.17
2019-02-14T22:20:04.249Z,27.30
2019-02-14T22:22:32.020Z,29.17
2019-02-14T22:24:59.532Z,26.73
2019-02-14T22:27:27.004Z,27.90
2019-02-14T22:29:54.500Z,27.77
2019-02-14T22:32:21.995Z,30.10
2019-02-14T22:34:49.513Z,29.23
2019-02-14T22:37:17.083Z,28.93
2019-02-14T22:39:44.582Z,28.83
2019-02-14T22:42:12.080Z,28.73
2019-02-14T22:44:39.583Z,26.97
2019-02-14T22:47:07.055Z,27.10
2019-02-14T22:49:34.564Z,28.83
2019-02-14T22:52:02.057Z,29.20
2019-02-14T22:54:29.542Z,28.27
2019-02-14T22:56:57.066Z,30.27
2019-02-14T22:59:24.557Z,28.73
2019-02-14T23:01:52.047Z,28.87
2019-02-14T23:04:19.544Z,29.20
2019-02-14T23:06:47.017Z,28.30
2019-02-14T23:09:14.593Z,28.93
2019-02-14T23:11:42.443Z,29.77
2019-02-14T23:14:09.934Z,26.63
2019-02-14T23:16:37.476Z,27.60
2019-02-14T23:19:06.278Z,28.20
2019-02-14T23:21:33.789Z,30.13
2019-02-14T23:24:01.498Z,29.87
2019-02-14T23:26:28.974Z,30.07
2019-02-14T23:28:57.035Z,29.27
2019-02-14T23:31:24.590Z,28.87
2019-02-14T23:33:52.986Z,28.43
2019-02-14T23:36:21.876Z,29.43
2019-02-14T23:38:49.339Z,33.20
2019-02-14T23:41:16.883Z,33.23
2019-02-14T23:43:44.370Z,32.20
2019-02-14T23:46:11.959Z,28.77
2019-02-14T23:48:39.453Z,29.93
2019-02-14T23:51:06.985Z,31.13
2019-02-14T23:53:34.500Z,29.57
2019-02-14T23:56:02.058Z,29.10
2019-02-14T23:58:29.584Z,29.13
